Terminal Aerodrome Forecast
Issued by NWS

Home | Current Version | Previous Version | Text Only | Print | Product List | Glossary On
Versions: 1 2 3 4 5 6 7 8 9 10 11 12 13 14 15 16 17 18 19 20 21 22
000
FTUS41 KGYX 272336
TAFHIE
TAF
KHIE 272336Z 2800/2824 VRB03KT P6SM BKN100
     FM280500 00000KT 3SM BR BKN250
     FM280700 00000KT 2SM BR BKN015
     FM281100 00000KT 4SM BR BKN050
     FM281300 25004KT 6SM HZ SCT050 BKN100
     FM281500 26009KT P6SM OVC050 PROB30 2816/2818 P6SM -TSRA
      BKN050CB=

USA.gov is the U.S. government's official web portal to all federal, state and local government web resources and services.